Time;durP1;ratioP1;P1;durP2;ratioP2;P2;SDS_P1;SDS_P2;PMS_P1;PMS_P2;Temp;Humidity;BMP_temperature;BMP_pressure;BME280_temperature;BME280_humidity;BME280_pressure;Samples;Min_cycle;Max_cycle;Signal;HPM_P1;HPM_P2
2021/06/14 00:01:34;;;;;;;5.4;3.5;;;;;;;13.73;77.07422;945.4359;;;;
2021/06/14 00:04:01;;;;;;;5.5;3.8;;;;;;;13.7;77.01074;945.4236;;;;
2021/06/14 00:06:26;;;;;;;5.4;3.7;;;;;;;13.6;77.33789;945.4161;;;;
2021/06/14 00:08:52;;;;;;;5.8;3.7;;;;;;;13.46;77.70508;945.3803;;;;
2021/06/14 00:11:17;;;;;;;4.7;3.6;;;;;;;13.27;78.68262;945.3517;;;;
2021/06/14 00:13:45;;;;;;;5.3;3.7;;;;;;;13.25;78.81641;945.418;;;;
2021/06/14 00:16:10;;;;;;;5.3;3.8;;;;;;;13.34;78.75293;945.3981;;;;
2021/06/14 00:18:35;;;;;;;5.7;4;;;;;;;13.37;78.41309;945.408;;;;
2021/06/14 00:21:00;;;;;;;7;3.8;;;;;;;13.47;78.17969;945.3789;;;;
2021/06/14 00:23:29;;;;;;;7.3;3.7;;;;;;;13.52;77.70313;945.3489;;;;
2021/06/14 00:25:55;;;;;;;4.6;3.5;;;;;;;13.46;77.57813;945.3747;;;;
2021/06/14 00:28:21;;;;;;;7;3.9;;;;;;;13.41;78.12207;945.3635;;;;
2021/06/14 00:30:50;;;;;;;6;3.5;;;;;;;13.43;78.14844;945.2849;;;;
2021/06/14 00:33:15;;;;;;;5;3.4;;;;;;;13.42;78.31934;945.3088;;;;
2021/06/14 00:35:40;;;;;;;8;4.1;;;;;;;13.46;77.94629;945.2883;;;;
2021/06/14 00:38:05;;;;;;;5.1;4;;;;;;;13.45;77.79492;945.2603;;;;
2021/06/14 00:40:32;;;;;;;6.8;3.8;;;;;;;13.34;78.23438;945.2277;;;;
2021/06/14 00:42:57;;;;;;;5.3;4.1;;;;;;;13.18;78.83789;945.2689;;;;
2021/06/14 00:45:23;;;;;;;6.1;3.7;;;;;;;13.13;78.95605;945.1394;;;;
2021/06/14 00:47:47;;;;;;;4.8;3.8;;;;;;;13.02;79.02637;945.1581;;;;
2021/06/14 00:50:12;;;;;;;5.1;3.9;;;;;;;12.98;79.37598;945.1638;;;;
2021/06/14 00:52:38;;;;;;;6.7;4.3;;;;;;;13.04;79.20215;945.1616;;;;
2021/06/14 00:55:03;;;;;;;5.6;3.9;;;;;;;13.03;78.91406;945.1127;;;;
2021/06/14 00:57:28;;;;;;;6.1;4.2;;;;;;;13.12;77.97852;945.0873;;;;
2021/06/14 00:59:55;;;;;;;6.1;3.6;;;;;;;13.13;78.25391;945.0458;;;;
2021/06/14 01:02:22;;;;;;;5.4;3.7;;;;;;;12.99;78.64258;945.0751;;;;
2021/06/14 01:04:47;;;;;;;6.9;4;;;;;;;12.75;79.99902;945.0681;;;;
2021/06/14 01:07:12;;;;;;;6.7;3.9;;;;;;;12.85;79.84668;945.0184;;;;
2021/06/14 01:09:37;;;;;;;7.4;4;;;;;;;12.91;79.4668;945.0007;;;;
2021/06/14 01:12:02;;;;;;;5.8;4;;;;;;;12.96;79.0498;944.9908;;;;
2021/06/14 01:14:27;;;;;;;8.7;3.6;;;;;;;12.92;79.16992;944.9361;;;;
2021/06/14 01:16:59;;;;;;;4.1;3.6;;;;;;;12.89;79.43066;944.9558;;;;
2021/06/14 01:19:30;;;;;;;5.7;3.9;;;;;;;12.72;79.85645;944.9255;;;;
2021/06/14 01:21:55;;;;;;;7.7;3.9;;;;;;;12.83;79.47461;944.9319;;;;
2021/06/14 01:25:09;;;;;;;5.8;3.9;;;;;;;12.89;79.07227;944.883;;;;
2021/06/14 01:27:38;;;;;;;5.4;3.8;;;;;;;12.78;79.26953;944.8591;;;;
2021/06/14 01:30:03;;;;;;;7;4;;;;;;;12.63;79.8418;944.7798;;;;
2021/06/14 01:32:30;;;;;;;5.7;3.6;;;;;;;12.63;79.93359;944.7878;;;;
2021/06/14 01:34:55;;;;;;;6.1;3.8;;;;;;;12.66;79.72949;944.7274;;;;
2021/06/14 01:37:22;;;;;;;5.3;3.9;;;;;;;12.36;80.6748;944.7048;;;;
2021/06/14 01:39:47;;;;;;;5.1;3.8;;;;;;;12.26;81.49316;944.6644;;;;
2021/06/14 01:42:15;;;;;;;6.3;4;;;;;;;12.42;80.86816;944.6347;;;;
2021/06/14 01:44:40;;;;;;;5.2;3.7;;;;;;;12.43;80.5957;944.6054;;;;
2021/06/14 01:47:05;;;;;;;5.5;3.4;;;;;;;12.47;80.53223;944.5643;;;;
2021/06/14 01:49:32;;;;;;;7.3;3.7;;;;;;;12.42;80.58105;944.6284;;;;
2021/06/14 01:51:57;;;;;;;5.6;3.3;;;;;;;12.43;80.48926;944.5406;;;;
2021/06/14 01:54:25;;;;;;;6.9;3.6;;;;;;;12.32;80.74512;944.527;;;;
2021/06/14 01:57:54;;;;;;;5.2;3.7;;;;;;;12.19;81.25;944.4469;;;;
2021/06/14 02:00:04;;;;;;;8.3;4;;;;;;;12.29;80.74121;944.3821;;;;
2021/06/14 02:02:32;;;;;;;10.4;4.2;;;;;;;12.35;80.55664;944.4291;;;;
2021/06/14 02:04:57;;;;;;;8.6;4.3;;;;;;;12.36;80.5127;944.3853;;;;
2021/06/14 02:07:22;;;;;;;4.4;3.8;;;;;;;12.15;81.17285;944.3695;;;;
2021/06/14 02:09:47;;;;;;;5.2;3.8;;;;;;;12.11;81.38184;944.3635;;;;
2021/06/14 02:15:50;;;;;;;5.6;4.1;;;;;;;12.22;80.88672;944.2486;;;;
2021/06/14 02:18:16;;;;;;;7;4;;;;;;;12.24;80.75391;944.2897;;;;
2021/06/14 02:21:19;;;;;;;4.6;3.4;;;;;;;12.29;80.36328;944.2416;;;;
2021/06/14 02:23:47;;;;;;;5.6;3.9;;;;;;;12.32;80.00098;944.1509;;;;
2021/06/14 02:26:12;;;;;;;5.2;3.8;;;;;;;12.34;79.71777;944.1256;;;;
2021/06/14 02:31:33;;;;;;;7.5;3.8;;;;;;;12.2;80.20898;944.0828;;;;
2021/06/14 02:33:59;;;;;;;5.6;3.9;;;;;;;12.11;80.38672;944.1057;;;;
2021/06/14 02:36:24;;;;;;;6;3.8;;;;;;;12.03;80.71582;944.0974;;;;
2021/06/14 02:38:51;;;;;;;6.3;3.5;;;;;;;12.06;80.39941;944.0954;;;;
2021/06/14 02:41:44;;;;;;;5.3;3.6;;;;;;;12.08;80.04785;944.019;;;;
2021/06/14 02:44:11;;;;;;;5.6;3.7;;;;;;;11.79;81.45996;944.0298;;;;
2021/06/14 02:46:36;;;;;;;5.7;3.6;;;;;;;11.64;82.38281;944.0209;;;;
2021/06/14 02:49:01;;;;;;;7.8;3.9;;;;;;;11.77;81.85742;944.0179;;;;
2021/06/14 02:51:26;;;;;;;4.4;3.6;;;;;;;11.73;81.82813;943.9576;;;;
2021/06/14 02:54:03;;;;;;;5.4;3.8;;;;;;;11.78;81.60742;943.8293;;;;
2021/06/14 02:56:16;;;;;;;4.1;3.7;;;;;;;11.64;82.02832;943.8965;;;;
2021/06/14 02:58:43;;;;;;;6.6;3.4;;;;;;;11.77;81.61719;943.8879;;;;
2021/06/14 03:01:08;;;;;;;8.3;3.6;;;;;;;11.81;81.34961;943.8951;;;;
2021/06/14 03:03:33;;;;;;;6.6;3.9;;;;;;;11.85;81.24316;943.7906;;;;
2021/06/14 03:05:59;;;;;;;5.3;4.2;;;;;;;11.69;81.92285;943.9036;;;;
2021/06/14 03:08:24;;;;;;;6.3;4.1;;;;;;;11.69;81.93262;943.8325;;;;
2021/06/14 03:10:49;;;;;;;5.8;3.8;;;;;;;11.72;81.67773;943.8147;;;;
2021/06/14 03:13:19;;;;;;;6;4;;;;;;;11.63;81.93359;943.807;;;;
2021/06/14 03:15:49;;;;;;;7.7;4.3;;;;;;;11.57;82.42676;943.829;;;;
2021/06/14 03:18:14;;;;;;;7.4;4.5;;;;;;;11.62;81.95605;943.8077;;;;
2021/06/14 03:20:40;;;;;;;6.2;4.2;;;;;;;11.63;81.93359;943.8342;;;;
2021/06/14 03:23:05;;;;;;;6.5;4.3;;;;;;;11.63;81.76172;943.8444;;;;
2021/06/14 03:25:36;;;;;;;6.5;4.4;;;;;;;11.57;82.19824;943.8602;;;;
2021/06/14 03:28:04;;;;;;;4.8;4;;;;;;;11.61;81.90723;943.8455;;;;
2021/06/14 03:30:30;;;;;;;5.2;4;;;;;;;11.48;82.08789;943.8395;;;;
2021/06/14 03:32:56;;;;;;;7.4;3.8;;;;;;;11.2;83.5459;943.8125;;;;
2021/06/14 03:35:21;;;;;;;10.2;4.1;;;;;;;11.22;83.85742;943.8394;;;;
2021/06/14 03:37:48;;;;;;;8.6;4.8;;;;;;;11.4;83.21777;943.8134;;;;
2021/06/14 03:40:13;;;;;;;9;3.9;;;;;;;11.63;82.09375;943.834;;;;
2021/06/14 03:42:42;;;;;;;4.7;3.6;;;;;;;11.58;81.94727;943.8642;;;;
2021/06/14 03:45:07;;;;;;;5.5;3.7;;;;;;;11.49;82.50293;943.8924;;;;
2021/06/14 03:47:34;;;;;;;5.5;3.7;;;;;;;11.57;81.92285;943.9438;;;;
2021/06/14 03:49:59;;;;;;;5.7;3.8;;;;;;;11.44;82.36816;943.9267;;;;
2021/06/14 03:52:24;;;;;;;8;3.6;;;;;;;11.44;82.80176;943.918;;;;
2021/06/14 03:54:50;;;;;;;5.4;4.2;;;;;;;11.51;82.75977;943.927;;;;
2021/06/14 03:57:16;;;;;;;9.7;4.5;;;;;;;11.57;82.39453;943.9822;;;;
2021/06/14 03:59:45;;;;;;;7.8;4;;;;;;;11.7;81.66211;943.9213;;;;
2021/06/14 04:02:35;;;;;;;5.1;3.8;;;;;;;11.78;81.44727;944.0284;;;;
2021/06/14 04:05:00;;;;;;;6.9;4;;;;;;;11.86;80.95801;944.0447;;;;
2021/06/14 04:07:29;;;;;;;7.1;3.8;;;;;;;11.77;81.1709;944.0203;;;;
2021/06/14 04:09:59;;;;;;;5.2;3.9;;;;;;;11.85;81.23145;944.0898;;;;
2021/06/14 04:12:19;;;;;;;6.2;3.7;;;;;;;11.91;80.73828;944.014;;;;
2021/06/14 04:15:03;;;;;;;7;4;;;;;;;11.94;81.01758;944.0256;;;;
2021/06/14 04:17:22;;;;;;;7.3;3.8;;;;;;;11.84;80.65527;944.0563;;;;
2021/06/14 04:19:47;;;;;;;8.5;3.9;;;;;;;11.83;80.60938;944.1144;;;;
2021/06/14 04:22:16;;;;;;;11.6;3.9;;;;;;;11.8;81.08398;944.2142;;;;
2021/06/14 04:24:41;;;;;;;9.2;4.6;;;;;;;11.74;81.0498;944.1675;;;;
2021/06/14 04:27:08;;;;;;;5.8;4.2;;;;;;;11.68;82.21875;944.1802;;;;
2021/06/14 04:29:33;;;;;;;4.7;4.1;;;;;;;11.68;81.58887;944.1635;;;;
2021/06/14 04:31:59;;;;;;;5.1;3.5;;;;;;;11.75;80.88086;944.2043;;;;
2021/06/14 04:34:24;;;;;;;7.1;4.5;;;;;;;11.91;80.76074;944.1976;;;;
2021/06/14 04:36:51;;;;;;;6.8;3.8;;;;;;;11.93;80.70898;944.1685;;;;
2021/06/14 04:39:16;;;;;;;5.7;4.2;;;;;;;11.84;80.14063;944.1663;;;;
2021/06/14 04:41:52;;;;;;;7.1;4.2;;;;;;;11.92;80.44141;944.2089;;;;
2021/06/14 04:44:19;;;;;;;6;3.8;;;;;;;11.76;80.4248;944.2253;;;;
2021/06/14 04:46:44;;;;;;;8.3;4.3;;;;;;;11.68;81.47461;944.181;;;;
2021/06/14 04:49:12;;;;;;;6.9;4.6;;;;;;;11.73;81.56445;944.2281;;;;
2021/06/14 04:51:37;;;;;;;7.8;4.2;;;;;;;11.75;81.03027;944.2658;;;;
2021/06/14 04:54:03;;;;;;;5.9;4.1;;;;;;;11.72;81.15039;944.2208;;;;
2021/06/14 04:56:28;;;;;;;6.9;4.7;;;;;;;11.79;81.26758;944.2333;;;;
2021/06/14 04:58:55;;;;;;;5.8;4.1;;;;;;;11.93;80.71973;944.2219;;;;
2021/06/14 05:01:20;;;;;;;8.1;5.1;;;;;;;12.19;82.83203;944.2009;;;;
2021/06/14 05:03:46;;;;;;;5.3;3.5;;;;;;;13.25;77.97754;944.2559;;;;
2021/06/14 05:06:11;;;;;;;5.3;3;;;;;;;14.33;72.50391;944.1956;;;;
2021/06/14 05:08:48;;;;;;;6.1;3.1;;;;;;;15.34;68.45801;944.0972;;;;
2021/06/14 05:11:16;;;;;;;4;2.5;;;;;;;17.29;61.33105;944.0549;;;;
2021/06/14 05:13:41;;;;;;;4.6;2.3;;;;;;;18.12;57.70605;944.1161;;;;
2021/06/14 05:16:10;;;;;;;7.9;3.1;;;;;;;18.77;55.42773;944.1317;;;;
2021/06/14 05:18:39;;;;;;;3.6;2.4;;;;;;;19.64;53.25293;944.0514;;;;
2021/06/14 05:21:04;;;;;;;6.2;2.6;;;;;;;19.96;51.16895;944.1069;;;;
2021/06/14 05:23:31;;;;;;;2.9;2.4;;;;;;;21.04;49.53906;944.0815;;;;
2021/06/14 05:25:56;;;;;;;4.3;2.7;;;;;;;21.11;49.79395;944.0499;;;;
2021/06/14 05:28:24;;;;;;;3.5;2.8;;;;;;;21.81;47.07324;944.0662;;;;
2021/06/14 05:31:07;;;;;;;7.6;2.7;;;;;;;22.53;44.90723;944.0507;;;;
2021/06/14 05:33:14;;;;;;;6;2.4;;;;;;;22.6;44.5625;943.9967;;;;
2021/06/14 05:35:39;;;;;;;6.2;2.6;;;;;;;22.28;45.25586;944.0345;;;;
2021/06/14 05:38:05;;;;;;;4.3;2.4;;;;;;;22.46;44.8291;943.9853;;;;
2021/06/14 05:40:31;;;;;;;5;2.6;;;;;;;22.63;43.97852;943.989;;;;
2021/06/14 05:42:57;;;;;;;6.5;2.5;;;;;;;22.57;43.84277;943.9895;;;;
2021/06/14 05:45:22;;;;;;;3.5;2.5;;;;;;;22.26;44.39844;943.9572;;;;
2021/06/14 05:47:49;;;;;;;3.6;2.5;;;;;;;22.14;45.2666;943.9072;;;;
2021/06/14 05:50:15;;;;;;;4.2;2.5;;;;;;;22.68;44.39453;943.8876;;;;
2021/06/14 05:52:40;;;;;;;4.4;2.6;;;;;;;23.64;42.13672;943.8527;;;;
2021/06/14 05:55:05;;;;;;;2.8;2.3;;;;;;;23.79;41.39844;943.8753;;;;
2021/06/14 05:57:30;;;;;;;4.4;2.6;;;;;;;24.15;40.35938;943.8454;;;;
2021/06/14 05:59:55;;;;;;;5.2;2.5;;;;;;;23.89;40.58398;943.8006;;;;
2021/06/14 06:02:23;;;;;;;5.8;2.8;;;;;;;24.17;39.90234;943.7697;;;;
2021/06/14 06:04:49;;;;;;;3.4;2.4;;;;;;;24.36;39.60059;943.745;;;;
2021/06/14 06:07:17;;;;;;;4.5;2.3;;;;;;;24.51;39.46094;943.7343;;;;
2021/06/14 06:09:42;;;;;;;3.3;2.7;;;;;;;24.82;38.81641;943.6671;;;;
2021/06/14 06:12:08;;;;;;;5;2.5;;;;;;;25.32;37.72559;943.6401;;;;
2021/06/14 06:14:37;;;;;;;4;2.4;;;;;;;24.6;38.66797;943.6722;;;;
2021/06/14 06:17:11;;;;;;;2.8;2.3;;;;;;;24.61;39.21094;943.6027;;;;
2021/06/14 06:19:39;;;;;;;4.6;2.7;;;;;;;25.31;37.46484;943.6543;;;;
2021/06/14 06:22:04;;;;;;;3.1;2.1;;;;;;;25.07;38.56641;943.5924;;;;
2021/06/14 06:24:33;;;;;;;4.4;2.3;;;;;;;26.52;37.53223;943.5695;;;;
2021/06/14 06:26:57;;;;;;;5.6;2.2;;;;;;;27.98;33.9834;943.5343;;;;
2021/06/14 06:30:04;;;;;;;4.2;2.3;;;;;;;28.22;32.20605;943.5036;;;;
2021/06/14 06:32:29;;;;;;;2.6;2.2;;;;;;;28.37;33.26367;943.4573;;;;
2021/06/14 06:34:57;;;;;;;3.9;2.4;;;;;;;28.36;34.69043;943.4337;;;;
2021/06/14 06:37:22;;;;;;;3.1;2.6;;;;;;;29.75;31.37402;943.397;;;;
2021/06/14 06:39:50;;;;;;;3.2;2.3;;;;;;;28.8;31.35547;943.3024;;;;
2021/06/14 06:42:15;;;;;;;2.2;2;;;;;;;29.12;32.54492;943.2991;;;;
2021/06/14 06:44:42;;;;;;;2.8;2.2;;;;;;;29.8;31.15137;943.3077;;;;
2021/06/14 06:47:07;;;;;;;3.4;2.3;;;;;;;28.02;32.73926;943.2421;;;;
2021/06/14 06:49:33;;;;;;;3.5;2.1;;;;;;;29.94;31.36328;943.1909;;;;
2021/06/14 06:51:58;;;;;;;3.2;2.2;;;;;;;29.37;29.89453;943.1166;;;;
2021/06/14 06:54:25;;;;;;;4.5;2.4;;;;;;;28.78;31.84277;943.1498;;;;
2021/06/14 06:56:50;;;;;;;3.1;2.3;;;;;;;29.46;29.76953;943.098;;;;
2021/06/14 06:59:15;;;;;;;4.9;2.3;;;;;;;29.05;33.40918;943.1364;;;;
2021/06/14 07:01:44;;;;;;;9.6;2.2;;;;;;;30.55;29.70996;943.1219;;;;
2021/06/14 07:04:08;;;;;;;4.7;2.1;;;;;;;30.2;29.79395;943.1743;;;;
2021/06/14 07:06:33;;;;;;;3.4;2.4;;;;;;;31.12;28.03613;943.1;;;;
2021/06/14 07:08:58;;;;;;;3.3;2.3;;;;;;;31.1;28.76465;943.0941;;;;
2021/06/14 07:11:23;;;;;;;2.8;2.4;;;;;;;30.23;27.88477;943.09;;;;
2021/06/14 07:13:51;;;;;;;3.1;2.2;;;;;;;30.79;29.33105;943.0259;;;;
2021/06/14 07:16:20;;;;;;;3.2;2.5;;;;;;;31.33;28.88672;942.9984;;;;
2021/06/14 07:18:49;;;;;;;2.9;2.3;;;;;;;31.92;26.99512;942.9406;;;;
2021/06/14 07:21:14;;;;;;;3.3;2.3;;;;;;;31.99;28.4375;942.921;;;;
2021/06/14 07:23:43;;;;;;;3;2.3;;;;;;;32.74;26.22852;942.9;;;;
2021/06/14 07:26:08;;;;;;;2.4;2.1;;;;;;;33.29;26.68066;942.9073;;;;
2021/06/14 07:28:38;;;;;;;4.2;2.2;;;;;;;32.37;26.4707;942.8456;;;;
2021/06/14 07:31:10;;;;;;;2;1.9;;;;;;;31.88;25.5918;942.8345;;;;
2021/06/14 07:33:35;;;;;;;4;2.3;;;;;;;30.4;28.24316;942.8557;;;;
2021/06/14 07:36:03;;;;;;;2.8;1.9;;;;;;;32.65;25.74316;942.7453;;;;
2021/06/14 07:38:27;;;;;;;3.4;2.1;;;;;;;33.78;25.73438;942.7743;;;;
2021/06/14 07:40:57;;;;;;;2.9;2.1;;;;;;;33.93;24.59961;942.7126;;;;
2021/06/14 07:43:22;;;;;;;3.6;2.4;;;;;;;32.41;26.05273;942.6506;;;;
2021/06/14 07:45:49;;;;;;;3.2;2.1;;;;;;;33.27;25.46582;942.6766;;;;
2021/06/14 07:48:22;;;;;;;2.6;2.1;;;;;;;33.31;25.41992;942.6414;;;;
2021/06/14 07:50:45;;;;;;;2.2;2;;;;;;;33.83;24.75098;942.6415;;;;
2021/06/14 07:53:13;;;;;;;4;2.7;;;;;;;34.67;23.34961;942.6208;;;;
2021/06/14 07:55:42;;;;;;;2.8;2.2;;;;;;;33.31;25.82813;942.538;;;;
2021/06/14 07:58:08;;;;;;;3.7;2.5;;;;;;;33.46;27.52051;942.6083;;;;
2021/06/14 08:00:34;;;;;;;3.8;2.6;;;;;;;34.29;25.94434;942.5851;;;;
2021/06/14 08:02:59;;;;;;;6.2;3.1;;;;;;;34.25;25.0625;942.58;;;;
2021/06/14 08:05:25;;;;;;;4.7;2.8;;;;;;;34.06;25.85938;942.567;;;;
2021/06/14 08:07:50;;;;;;;6;2.6;;;;;;;34;25.30176;942.5416;;;;
2021/06/14 08:10:19;;;;;;;3.8;2.6;;;;;;;34.49;25.77441;942.4832;;;;
2021/06/14 08:12:45;;;;;;;5;2.9;;;;;;;32.76;27.40625;942.49;;;;
2021/06/14 08:15:12;;;;;;;3.7;2.3;;;;;;;33.47;27.88086;942.5408;;;;
2021/06/14 08:17:37;;;;;;;3.6;2.6;;;;;;;32.98;27.28613;942.4788;;;;
2021/06/14 08:20:07;;;;;;;5.1;2.2;;;;;;;32.26;29.85742;942.5015;;;;
2021/06/14 08:22:37;;;;;;;4.5;2.4;;;;;;;34.19;26.68555;942.5275;;;;
2021/06/14 08:25:04;;;;;;;3.6;2.1;;;;;;;35.28;25.08301;942.5016;;;;
2021/06/14 08:27:20;;;;;;;3.7;2.3;;;;;;;33.66;27.45996;942.4678;;;;
2021/06/14 08:29:50;;;;;;;2.6;2.2;;;;;;;31.69;28.81445;942.433;;;;
2021/06/14 08:32:13;;;;;;;3.8;2.6;;;;;;;31.85;28.9082;942.4494;;;;
2021/06/14 08:34:39;;;;;;;3.6;2.3;;;;;;;32.6;28.4873;942.4114;;;;
2021/06/14 08:37:04;;;;;;;4.2;2.3;;;;;;;30.35;29.625;942.4041;;;;
2021/06/14 08:39:30;;;;;;;5.4;2.4;;;;;;;29.81;32.75;942.4484;;;;
2021/06/14 08:41:55;;;;;;;3.6;2;;;;;;;31.58;30.5791;942.3969;;;;
2021/06/14 08:44:21;;;;;;;2.4;1.9;;;;;;;31.54;30.22949;942.3875;;;;
2021/06/14 08:46:46;;;;;;;2.6;2;;;;;;;32.3;28.55371;942.3707;;;;
2021/06/14 08:49:12;;;;;;;3;2.3;;;;;;;32.4;29.17188;942.3465;;;;
2021/06/14 08:51:37;;;;;;;3.4;2.1;;;;;;;31.95;30.125;942.2683;;;;
2021/06/14 08:54:03;;;;;;;4;2.1;;;;;;;32.26;30.44531;942.2377;;;;
2021/06/14 08:56:28;;;;;;;5.4;2.7;;;;;;;30.06;33.49609;942.3237;;;;
2021/06/14 08:58:54;;;;;;;6.5;2.6;;;;;;;28.83;35.8916;942.2989;;;;
2021/06/14 09:01:20;;;;;;;4.4;2.4;;;;;;;28.15;35.21973;942.303;;;;
2021/06/14 09:03:46;;;;;;;3.2;2;;;;;;;29.45;32.90332;942.313;;;;
2021/06/14 09:06:11;;;;;;;3.8;2.1;;;;;;;29.45;34.11816;942.2751;;;;
2021/06/14 09:08:37;;;;;;;3.2;2.2;;;;;;;27.43;37.4541;942.2501;;;;
2021/06/14 09:11:04;;;;;;;3.4;2;;;;;;;28.95;34.05664;942.2969;;;;
2021/06/14 09:13:30;;;;;;;3.6;1.9;;;;;;;29.2;33.23047;942.3174;;;;
2021/06/14 09:15:55;;;;;;;4;2.1;;;;;;;28.33;36.85059;942.3442;;;;
2021/06/14 09:18:21;;;;;;;3.6;2.2;;;;;;;28.78;34.47168;942.2958;;;;
2021/06/14 09:20:48;;;;;;;2.4;2.1;;;;;;;28.68;35.71387;942.3431;;;;
2021/06/14 09:23:13;;;;;;;2.5;2;;;;;;;29.54;33.23047;942.3599;;;;
2021/06/14 09:25:42;;;;;;;4.3;2.6;;;;;;;27.94;36.21387;942.3621;;;;
2021/06/14 09:28:10;;;;;;;5.2;2.7;;;;;;;27.64;37.22168;942.2739;;;;
2021/06/14 09:30:35;;;;;;;2.3;2.1;;;;;;;27.68;39.19531;942.2489;;;;
2021/06/14 09:33:01;;;;;;;6.4;2.6;;;;;;;28.29;38.23828;942.3111;;;;
2021/06/14 09:35:28;;;;;;;4;2.5;;;;;;;28.44;38.91699;942.3122;;;;
2021/06/14 09:37:53;;;;;;;5.9;2.6;;;;;;;27.54;40.29883;942.3109;;;;
2021/06/14 09:40:20;;;;;;;3.7;2.2;;;;;;;27.12;39.25293;942.2434;;;;
2021/06/14 09:42:45;;;;;;;3.4;2.1;;;;;;;27.02;39.56445;942.1853;;;;
2021/06/14 09:45:11;;;;;;;2.7;2.5;;;;;;;27.6;38.42871;942.2204;;;;
2021/06/14 09:47:36;;;;;;;2.7;2.4;;;;;;;28.27;38.42676;942.1828;;;;
2021/06/14 09:50:01;;;;;;;4.3;2.7;;;;;;;27.93;39.82324;942.1873;;;;
2021/06/14 09:52:29;;;;;;;5.6;2.7;;;;;;;27.2;40.6123;942.2283;;;;
2021/06/14 09:54:54;;;;;;;5.3;2.6;;;;;;;27.25;40.22461;942.075;;;;
2021/06/14 09:57:20;;;;;;;2.6;2.4;;;;;;;27.42;39.74219;942.1358;;;;
2021/06/14 09:59:48;;;;;;;4.8;2.9;;;;;;;27.11;41.11426;942.0372;;;;
2021/06/14 10:02:16;;;;;;;3.5;2.6;;;;;;;26.28;42.5166;942.0778;;;;
2021/06/14 10:04:36;;;;;;;5.9;2.4;;;;;;;26.75;40.71387;942.0062;;;;
2021/06/14 10:07:02;;;;;;;3.7;2.4;;;;;;;26.41;42.75391;942.0338;;;;
2021/06/14 10:09:27;;;;;;;3;2.3;;;;;;;26.43;41.54785;941.985;;;;
2021/06/14 10:11:55;;;;;;;3.5;2.6;;;;;;;25.58;45.02539;942.0128;;;;
2021/06/14 10:14:21;;;;;;;3.7;2.6;;;;;;;25.74;44.69922;941.9982;;;;
2021/06/14 10:16:50;;;;;;;4.2;2.5;;;;;;;25.53;46.02539;941.9162;;;;
2021/06/14 10:19:16;;;;;;;4.4;2.5;;;;;;;25.54;46.08496;941.9434;;;;
2021/06/14 10:21:41;;;;;;;3.8;2.7;;;;;;;25.82;44.44629;941.9426;;;;
2021/06/14 10:24:10;;;;;;;4;2.6;;;;;;;25.96;46.44727;941.9311;;;;
2021/06/14 10:26:37;;;;;;;4.3;2.7;;;;;;;25.72;45.58301;941.9485;;;;
2021/06/14 10:29:02;;;;;;;3.8;2.4;;;;;;;25.75;45.01953;941.8567;;;;
2021/06/14 10:31:31;;;;;;;3.2;2.6;;;;;;;25.18;46.24902;941.8705;;;;
2021/06/14 10:33:56;;;;;;;6.3;2.5;;;;;;;25.39;44.99512;941.8483;;;;
2021/06/14 10:36:24;;;;;;;4.4;2.4;;;;;;;25.58;44.60156;941.8233;;;;
2021/06/14 10:38:50;;;;;;;2.6;2.4;;;;;;;25.99;43.28125;941.7355;;;;
2021/06/14 10:41:15;;;;;;;3.5;2.5;;;;;;;26.07;44.53125;941.7589;;;;
2021/06/14 10:43:41;;;;;;;3.1;2.4;;;;;;;25.75;43.44727;941.6486;;;;
2021/06/14 10:46:07;;;;;;;4.8;2.5;;;;;;;25.26;46.94238;941.6916;;;;
2021/06/14 10:48:35;;;;;;;5.6;2.7;;;;;;;25.57;46.25391;941.6682;;;;
2021/06/14 10:51:00;;;;;;;3.4;2.4;;;;;;;25.57;42.27246;941.6517;;;;
2021/06/14 10:53:26;;;;;;;7.1;2.5;;;;;;;25.62;44.23828;941.5771;;;;
2021/06/14 10:55:56;;;;;;;3.4;2.3;;;;;;;25.38;45.93945;941.5519;;;;
2021/06/14 10:58:21;;;;;;;3.2;2.4;;;;;;;25.53;44.1709;941.5931;;;;
2021/06/14 11:00:46;;;;;;;6.9;3.1;;;;;;;25.91;43.33398;941.5412;;;;
2021/06/14 11:03:13;;;;;;;3.8;2.4;;;;;;;25.91;42.68359;941.5314;;;;
2021/06/14 11:05:39;;;;;;;4.5;2.3;;;;;;;25.75;44.00293;941.4863;;;;
2021/06/14 11:08:04;;;;;;;4.5;2.3;;;;;;;25.79;42.99121;941.4908;;;;
2021/06/14 11:10:29;;;;;;;2.8;2.3;;;;;;;25.82;44.63672;941.5574;;;;
2021/06/14 11:12:54;;;;;;;4.2;2.7;;;;;;;26.15;43.15527;941.5497;;;;
2021/06/14 11:15:30;;;;;;;3.5;2.2;;;;;;;26.28;43.60449;941.527;;;;
2021/06/14 11:17:55;;;;;;;2.9;2.2;;;;;;;26.14;42.23145;941.4007;;;;
2021/06/14 11:20:20;;;;;;;2.4;2;;;;;;;26.25;42.85645;941.4161;;;;
2021/06/14 11:22:49;;;;;;;5.2;2.3;;;;;;;25.97;44.11914;941.3892;;;;
2021/06/14 11:25:13;;;;;;;3.1;2.1;;;;;;;26.08;41.11328;941.3226;;;;
2021/06/14 11:27:39;;;;;;;3.4;2.3;;;;;;;25.92;43.7832;941.3409;;;;
2021/06/14 11:30:04;;;;;;;3.3;2.1;;;;;;;25.77;43.78027;941.3025;;;;
2021/06/14 11:32:32;;;;;;;5.1;2.1;;;;;;;25.41;43.49707;941.2874;;;;
2021/06/14 11:34:57;;;;;;;2.8;2.2;;;;;;;25.67;44.64453;941.1389;;;;
2021/06/14 11:37:25;;;;;;;3.4;2.4;;;;;;;26.04;43.58203;941.0764;;;;
2021/06/14 11:39:50;;;;;;;6;2.2;;;;;;;26.32;42.73438;941.0773;;;;
2021/06/14 11:42:15;;;;;;;3.5;2.5;;;;;;;26.4;42.44531;941.0851;;;;
2021/06/14 11:44:41;;;;;;;3.4;2.1;;;;;;;26.23;41.8252;940.9984;;;;
2021/06/14 11:47:06;;;;;;;3.4;2.2;;;;;;;26.22;44.29883;940.9943;;;;
2021/06/14 11:49:33;;;;;;;5;2.1;;;;;;;25.93;43.53613;941.01;;;;
2021/06/14 11:51:58;;;;;;;3.8;2.2;;;;;;;26.01;44.4541;941.0072;;;;
2021/06/14 11:54:23;;;;;;;3.6;2.1;;;;;;;26.03;42.29199;940.9942;;;;
2021/06/14 11:56:50;;;;;;;3.5;2.2;;;;;;;25.92;42.35254;940.9589;;;;
2021/06/14 11:59:16;;;;;;;4.6;2;;;;;;;26.17;42.11621;940.8981;;;;
2021/06/14 12:01:42;;;;;;;3.8;2.3;;;;;;;26.49;42.00391;940.8968;;;;
2021/06/14 12:04:07;;;;;;;3.5;2.3;;;;;;;26.3;42.28223;940.8447;;;;
2021/06/14 12:06:42;;;;;;;5.6;2.4;;;;;;;26.3;42.13965;940.7941;;;;
2021/06/14 12:09:15;;;;;;;4.2;2.4;;;;;;;26.14;42.83496;940.7441;;;;
2021/06/14 12:11:40;;;;;;;4.5;2.3;;;;;;;26.28;41.66504;940.8081;;;;
2021/06/14 12:14:05;;;;;;;3.7;2.2;;;;;;;26.23;41.00977;940.7108;;;;
2021/06/14 12:16:31;;;;;;;4.2;2.4;;;;;;;25.93;41.89258;940.6959;;;;
2021/06/14 12:18:59;;;;;;;5.6;2.3;;;;;;;25.83;43.37305;940.6244;;;;
2021/06/14 12:21:24;;;;;;;4.2;2.2;;;;;;;26.01;44.02832;940.6602;;;;
2021/06/14 12:23:51;;;;;;;5;2.2;;;;;;;26.23;42.69043;940.6323;;;;
2021/06/14 12:26:16;;;;;;;5;2.4;;;;;;;26.53;43.6543;940.6169;;;;
2021/06/14 12:28:42;;;;;;;4.7;2.3;;;;;;;26.25;41.16504;940.5786;;;;
2021/06/14 12:31:08;;;;;;;6;2.2;;;;;;;26.47;41.03125;940.5457;;;;
2021/06/14 12:33:35;;;;;;;4.1;1.9;;;;;;;26.54;40.94238;940.593;;;;
2021/06/14 12:36:00;;;;;;;3.5;2.6;;;;;;;26.15;44.10156;940.481;;;;
2021/06/14 12:38:29;;;;;;;3;2.3;;;;;;;26.17;42.3291;940.4399;;;;
2021/06/14 12:40:52;;;;;;;5;2.2;;;;;;;26.18;41.89258;940.3797;;;;
2021/06/14 12:43:17;;;;;;;4.7;2.1;;;;;;;26.22;43.10352;940.3608;;;;
2021/06/14 12:45:42;;;;;;;8.7;2.5;;;;;;;26.44;41.16992;940.2664;;;;
2021/06/14 12:48:08;;;;;;;2.9;2;;;;;;;26.35;42.25195;940.2864;;;;
2021/06/14 12:50:33;;;;;;;6.9;2.1;;;;;;;26.4;40.7998;940.228;;;;
2021/06/14 12:52:58;;;;;;;2.4;2.1;;;;;;;26.39;40.7168;940.253;;;;
2021/06/14 12:55:25;;;;;;;2.7;1.8;;;;;;;26.53;39.73438;940.158;;;;
2021/06/14 12:57:51;;;;;;;3.4;2.2;;;;;;;26.47;42.05078;940.1379;;;;
2021/06/14 13:00:16;;;;;;;3.5;2.1;;;;;;;26.53;40.97754;940.1809;;;;
2021/06/14 13:02:42;;;;;;;11.9;2.6;;;;;;;26.5;41.31934;940.1308;;;;
2021/06/14 13:05:11;;;;;;;4;2;;;;;;;26.31;41.28809;940.0475;;;;
2021/06/14 13:07:41;;;;;;;2.3;2.1;;;;;;;25.99;41.91016;940.0686;;;;
2021/06/14 13:10:06;;;;;;;4.3;2;;;;;;;25.83;42.97168;940.1055;;;;
2021/06/14 13:12:31;;;;;;;3.8;2.2;;;;;;;25.97;44.47363;940.0736;;;;
2021/06/14 13:14:56;;;;;;;2.8;1.9;;;;;;;26.22;42.40527;940.0325;;;;
2021/06/14 13:17:29;;;;;;;4;2.1;;;;;;;26.41;41.45117;940.0095;;;;
2021/06/14 13:19:57;;;;;;;3.4;2;;;;;;;26.48;41.30469;939.9825;;;;
2021/06/14 13:22:22;;;;;;;5;2.2;;;;;;;26.45;42.67578;939.9429;;;;
2021/06/14 13:24:49;;;;;;;4.6;2.3;;;;;;;26.56;39.82031;939.8984;;;;
2021/06/14 13:27:14;;;;;;;4.4;2.1;;;;;;;26.43;40.10449;939.8639;;;;
2021/06/14 13:29:42;;;;;;;4.1;2.2;;;;;;;26.61;40.01367;939.7932;;;;
2021/06/14 13:32:11;;;;;;;4;2.1;;;;;;;26.35;41.83789;939.7885;;;;
2021/06/14 13:34:35;;;;;;;5.4;1.9;;;;;;;26.22;42.77246;939.7687;;;;
2021/06/14 13:37:00;;;;;;;3.3;2.1;;;;;;;26.38;40.81055;939.7949;;;;
2021/06/14 13:39:25;;;;;;;5.9;2.2;;;;;;;26.41;42.74219;939.7617;;;;
2021/06/14 13:41:50;;;;;;;4;2.1;;;;;;;26.24;40.78613;939.7487;;;;
2021/06/14 13:44:18;;;;;;;2.6;2.1;;;;;;;26.1;41.06836;939.7332;;;;
2021/06/14 13:46:42;;;;;;;3.5;2;;;;;;;26.18;42.73145;939.699;;;;
2021/06/14 13:49:07;;;;;;;4.7;2.2;;;;;;;26;42.51367;939.7452;;;;
2021/06/14 13:51:33;;;;;;;3.2;2.2;;;;;;;26.15;41.55762;939.6841;;;;
2021/06/14 13:54:01;;;;;;;3.7;1.9;;;;;;;26.11;41.22363;939.6437;;;;
2021/06/14 13:56:23;;;;;;;2;1.9;;;;;;;25.9;42.23145;939.6953;;;;
2021/06/14 13:58:52;;;;;;;3.2;2.1;;;;;;;25.96;41.96582;939.6819;;;;
2021/06/14 14:01:17;;;;;;;2.5;1.8;;;;;;;26.02;41.53418;939.6291;;;;
2021/06/14 14:03:42;;;;;;;3.5;2.4;;;;;;;26.16;41.45313;939.6215;;;;
2021/06/14 14:06:07;;;;;;;2.8;1.8;;;;;;;26.13;42.07617;939.6591;;;;
2021/06/14 14:08:35;;;;;;;3.2;2;;;;;;;26.13;42.49023;939.6149;;;;
2021/06/14 14:11:00;;;;;;;3;2;;;;;;;26.11;40.6543;939.6006;;;;
2021/06/14 14:17:06;;;;;;;4.4;2.1;;;;;;;26.27;40.84766;939.6133;;;;
2021/06/14 14:19:35;;;;;;;2.8;2.1;;;;;;;26.36;41.3291;939.6433;;;;
2021/06/14 14:22:03;;;;;;;6.3;2.2;;;;;;;26.16;39.54785;939.5361;;;;
2021/06/14 14:24:28;;;;;;;3;2.1;;;;;;;26.08;40.30957;939.5823;;;;
2021/06/14 14:26:54;;;;;;;4;2.1;;;;;;;26.11;40.6543;939.5044;;;;
2021/06/14 14:29:19;;;;;;;6.2;2.6;;;;;;;26.08;41.59961;939.5673;;;;
2021/06/14 14:31:50;;;;;;;3.8;1.8;;;;;;;26.04;40.3418;939.5922;;;;
2021/06/14 14:34:16;;;;;;;2.4;2;;;;;;;26.11;40.69043;939.5974;;;;